sensor_id;sensor_type;location;lat;lon;timestamp;P1;durP1;ratioP1;P2;durP2;ratioP2
47796;SDS011;33558;50.922;14.068;2023-02-15T00:01:33;99.87;;;33.37;;
47796;SDS011;33558;50.922;14.068;2023-02-15T00:04:00;100.53;;;31.70;;
47796;SDS011;33558;50.922;14.068;2023-02-15T00:06:27;105.77;;;33.60;;
47796;SDS011;33558;50.922;14.068;2023-02-15T00:08:54;101.97;;;32.93;;
47796;SDS011;33558;50.922;14.068;2023-02-15T00:11:21;110.03;;;32.50;;
47796;SDS011;33558;50.922;14.068;2023-02-15T00:14:02;103.47;;;31.57;;
47796;SDS011;33558;50.922;14.068;2023-02-15T00:16:28;104.50;;;33.27;;
47796;SDS011;33558;50.922;14.068;2023-02-15T00:18:59;108.17;;;35.23;;
47796;SDS011;33558;50.922;14.068;2023-02-15T00:21:27;95.60;;;31.63;;
47796;SDS011;33558;50.922;14.068;2023-02-15T00:23:53;104.00;;;32.33;;
47796;SDS011;33558;50.922;14.068;2023-02-15T00:26:20;91.67;;;30.87;;
47796;SDS011;33558;50.922;14.068;2023-02-15T00:28:47;100.90;;;32.03;;
47796;SDS011;33558;50.922;14.068;2023-02-15T00:31:13;91.27;;;31.37;;
47796;SDS011;33558;50.922;14.068;2023-02-15T00:33:40;96.90;;;33.60;;
47796;SDS011;33558;50.922;14.068;2023-02-15T00:36:08;99.60;;;32.07;;
47796;SDS011;33558;50.922;14.068;2023-02-15T00:38:36;99.23;;;31.60;;
47796;SDS011;33558;50.922;14.068;2023-02-15T00:41:04;97.00;;;30.73;;
47796;SDS011;33558;50.922;14.068;2023-02-15T00:43:32;85.37;;;28.67;;
47796;SDS011;33558;50.922;14.068;2023-02-15T00:46:00;88.20;;;30.03;;
47796;SDS011;33558;50.922;14.068;2023-02-15T00:48:27;82.40;;;27.97;;
47796;SDS011;33558;50.922;14.068;2023-02-15T00:50:54;89.10;;;29.23;;
47796;SDS011;33558;50.922;14.068;2023-02-15T00:53:23;78.07;;;28.90;;
47796;SDS011;33558;50.922;14.068;2023-02-15T00:55:51;79.60;;;29.93;;
47796;SDS011;33558;50.922;14.068;2023-02-15T00:58:17;73.57;;;26.00;;
47796;SDS011;33558;50.922;14.068;2023-02-15T01:00:45;81.43;;;28.33;;
47796;SDS011;33558;50.922;14.068;2023-02-15T01:03:13;80.47;;;27.70;;
47796;SDS011;33558;50.922;14.068;2023-02-15T01:05:41;78.97;;;28.57;;
47796;SDS011;33558;50.922;14.068;2023-02-15T01:08:07;90.67;;;30.03;;
47796;SDS011;33558;50.922;14.068;2023-02-15T01:10:38;77.47;;;26.87;;
47796;SDS011;33558;50.922;14.068;2023-02-15T07:15:09;20.87;;;10.07;;
47796;SDS011;33558;50.922;14.068;2023-02-15T07:17:40;21.03;;;9.97;;
47796;SDS011;33558;50.922;14.068;2023-02-15T07:20:08;21.70;;;9.63;;
47796;SDS011;33558;50.922;14.068;2023-02-15T07:22:36;24.17;;;9.33;;
47796;SDS011;33558;50.922;14.068;2023-02-15T07:25:03;21.17;;;9.00;;
47796;SDS011;33558;50.922;14.068;2023-02-15T07:27:30;20.00;;;9.83;;
47796;SDS011;33558;50.922;14.068;2023-02-15T07:29:58;21.40;;;10.00;;
47796;SDS011;33558;50.922;14.068;2023-02-15T07:32:26;20.67;;;10.07;;
47796;SDS011;33558;50.922;14.068;2023-02-15T07:34:54;14.67;;;7.47;;
47796;SDS011;33558;50.922;14.068;2023-02-15T07:37:21;19.80;;;9.27;;
47796;SDS011;33558;50.922;14.068;2023-02-15T07:39:47;18.77;;;9.50;;
47796;SDS011;33558;50.922;14.068;2023-02-15T07:42:14;17.03;;;8.80;;
47796;SDS011;33558;50.922;14.068;2023-02-15T07:44:40;17.67;;;8.57;;
47796;SDS011;33558;50.922;14.068;2023-02-15T07:47:08;15.00;;;8.10;;
47796;SDS011;33558;50.922;14.068;2023-02-15T07:49:35;17.10;;;8.33;;
47796;SDS011;33558;50.922;14.068;2023-02-15T07:52:02;14.43;;;7.53;;
47796;SDS011;33558;50.922;14.068;2023-02-15T07:54:28;15.43;;;8.37;;
47796;SDS011;33558;50.922;14.068;2023-02-15T07:56:55;15.90;;;8.03;;
47796;SDS011;33558;50.922;14.068;2023-02-15T07:59:22;15.33;;;8.33;;
47796;SDS011;33558;50.922;14.068;2023-02-15T08:01:49;16.47;;;9.07;;
47796;SDS011;33558;50.922;14.068;2023-02-15T08:04:19;16.30;;;7.90;;
47796;SDS011;33558;50.922;14.068;2023-02-15T08:06:45;16.60;;;8.47;;
47796;SDS011;33558;50.922;14.068;2023-02-15T08:09:12;17.73;;;8.63;;
47796;SDS011;33558;50.922;14.068;2023-02-15T08:11:39;15.60;;;7.87;;
47796;SDS011;33558;50.922;14.068;2023-02-15T08:14:07;18.43;;;9.03;;
47796;SDS011;33558;50.922;14.068;2023-02-15T08:16:35;18.57;;;9.07;;
47796;SDS011;33558;50.922;14.068;2023-02-15T08:19:03;16.13;;;8.20;;
47796;SDS011;33558;50.922;14.068;2023-02-15T08:21:32;18.10;;;9.50;;
47796;SDS011;33558;50.922;14.068;2023-02-15T08:24:00;17.70;;;8.87;;
47796;SDS011;33558;50.922;14.068;2023-02-15T08:26:28;17.10;;;8.63;;
47796;SDS011;33558;50.922;14.068;2023-02-15T08:28:55;18.53;;;8.77;;
47796;SDS011;33558;50.922;14.068;2023-02-15T08:31:22;15.57;;;8.57;;
47796;SDS011;33558;50.922;14.068;2023-02-15T08:33:49;20.83;;;9.03;;
47796;SDS011;33558;50.922;14.068;2023-02-15T08:36:17;16.27;;;7.93;;
47796;SDS011;33558;50.922;14.068;2023-02-15T08:38:47;17.70;;;9.13;;
47796;SDS011;33558;50.922;14.068;2023-02-15T08:41:14;23.43;;;10.20;;
47796;SDS011;33558;50.922;14.068;2023-02-15T08:43:42;19.60;;;9.00;;
47796;SDS011;33558;50.922;14.068;2023-02-15T08:46:10;21.70;;;9.97;;
47796;SDS011;33558;50.922;14.068;2023-02-15T08:48:37;19.80;;;10.80;;
47796;SDS011;33558;50.922;14.068;2023-02-15T08:51:05;18.00;;;9.30;;
47796;SDS011;33558;50.922;14.068;2023-02-15T08:53:33;22.20;;;10.67;;
47796;SDS011;33558;50.922;14.068;2023-02-15T08:56:01;21.97;;;10.43;;
47796;SDS011;33558;50.922;14.068;2023-02-15T08:58:28;17.00;;;8.83;;
47796;SDS011;33558;50.922;14.068;2023-02-15T09:00:55;24.70;;;11.27;;
47796;SDS011;33558;50.922;14.068;2023-02-15T09:03:22;22.60;;;10.27;;
47796;SDS011;33558;50.922;14.068;2023-02-15T09:05:49;22.57;;;10.77;;
47796;SDS011;33558;50.922;14.068;2023-02-15T09:08:16;23.23;;;12.50;;
47796;SDS011;33558;50.922;14.068;2023-02-15T09:10:42;23.20;;;11.63;;
47796;SDS011;33558;50.922;14.068;2023-02-15T09:13:10;25.70;;;12.53;;
47796;SDS011;33558;50.922;14.068;2023-02-15T09:15:37;25.07;;;12.53;;
47796;SDS011;33558;50.922;14.068;2023-02-15T09:18:03;22.97;;;11.57;;
47796;SDS011;33558;50.922;14.068;2023-02-15T09:20:31;26.90;;;12.30;;
47796;SDS011;33558;50.922;14.068;2023-02-15T09:22:58;29.03;;;12.80;;
47796;SDS011;33558;50.922;14.068;2023-02-15T09:25:25;28.17;;;12.77;;
47796;SDS011;33558;50.922;14.068;2023-02-15T09:27:52;28.53;;;12.83;;
47796;SDS011;33558;50.922;14.068;2023-02-15T09:30:20;27.67;;;12.47;;
47796;SDS011;33558;50.922;14.068;2023-02-15T09:32:47;26.67;;;12.80;;
47796;SDS011;33558;50.922;14.068;2023-02-15T09:35:13;28.93;;;14.00;;
47796;SDS011;33558;50.922;14.068;2023-02-15T09:37:40;28.13;;;13.27;;
47796;SDS011;33558;50.922;14.068;2023-02-15T09:40:07;26.90;;;12.97;;
47796;SDS011;33558;50.922;14.068;2023-02-15T09:42:47;26.53;;;13.50;;
47796;SDS011;33558;50.922;14.068;2023-02-15T09:45:32;27.50;;;13.00;;
47796;SDS011;33558;50.922;14.068;2023-02-15T09:50:55;22.37;;;11.47;;
47796;SDS011;33558;50.922;14.068;2023-02-15T09:53:31;26.00;;;12.90;;
47796;SDS011;33558;50.922;14.068;2023-02-15T09:56:06;26.33;;;13.17;;
47796;SDS011;33558;50.922;14.068;2023-02-15T09:58:38;26.67;;;13.50;;
47796;SDS011;33558;50.922;14.068;2023-02-15T10:01:11;24.87;;;12.43;;
47796;SDS011;33558;50.922;14.068;2023-02-15T10:03:48;27.48;;;13.23;;
47796;SDS011;33558;50.922;14.068;2023-02-15T10:06:32;24.50;;;12.37;;
47796;SDS011;33558;50.922;14.068;2023-02-15T10:09:16;26.07;;;13.17;;
47796;SDS011;33558;50.922;14.068;2023-02-15T10:11:54;23.53;;;11.33;;
47796;SDS011;33558;50.922;14.068;2023-02-15T10:14:36;25.87;;;12.13;;
47796;SDS011;33558;50.922;14.068;2023-02-15T10:17:12;20.17;;;10.90;;
47796;SDS011;33558;50.922;14.068;2023-02-15T10:19:49;25.00;;;12.70;;
47796;SDS011;33558;50.922;14.068;2023-02-15T10:22:27;23.33;;;12.87;;
47796;SDS011;33558;50.922;14.068;2023-02-15T10:25:00;24.13;;;12.47;;
47796;SDS011;33558;50.922;14.068;2023-02-15T10:27:38;20.90;;;12.17;;
47796;SDS011;33558;50.922;14.068;2023-02-15T10:30:08;23.47;;;11.53;;
47796;SDS011;33558;50.922;14.068;2023-02-15T10:32:38;21.33;;;10.80;;
47796;SDS011;33558;50.922;14.068;2023-02-15T10:35:11;22.63;;;11.80;;
47796;SDS011;33558;50.922;14.068;2023-02-15T10:38:01;20.77;;;11.23;;
47796;SDS011;33558;50.922;14.068;2023-02-15T10:40:33;21.97;;;11.33;;
47796;SDS011;33558;50.922;14.068;2023-02-15T10:43:12;22.23;;;12.07;;
47796;SDS011;33558;50.922;14.068;2023-02-15T10:45:49;23.93;;;12.07;;
47796;SDS011;33558;50.922;14.068;2023-02-15T10:48:37;21.40;;;11.80;;
47796;SDS011;33558;50.922;14.068;2023-02-15T10:51:14;24.77;;;11.80;;
47796;SDS011;33558;50.922;14.068;2023-02-15T10:53:53;21.57;;;11.60;;
47796;SDS011;33558;50.922;14.068;2023-02-15T10:56:28;19.93;;;11.10;;
47796;SDS011;33558;50.922;14.068;2023-02-15T10:59:11;20.10;;;10.83;;
47796;SDS011;33558;50.922;14.068;2023-02-15T11:01:48;21.60;;;11.27;;
47796;SDS011;33558;50.922;14.068;2023-02-15T11:04:27;20.80;;;10.83;;
47796;SDS011;33558;50.922;14.068;2023-02-15T11:07:02;22.70;;;11.33;;
47796;SDS011;33558;50.922;14.068;2023-02-15T11:09:33;20.53;;;10.60;;
47796;SDS011;33558;50.922;14.068;2023-02-15T11:12:04;20.53;;;10.67;;
47796;SDS011;33558;50.922;14.068;2023-02-15T11:14:35;24.30;;;12.70;;
47796;SDS011;33558;50.922;14.068;2023-02-15T11:17:05;20.60;;;11.30;;
47796;SDS011;33558;50.922;14.068;2023-02-15T11:19:37;20.87;;;11.10;;
47796;SDS011;33558;50.922;14.068;2023-02-15T11:22:06;18.13;;;10.57;;
47796;SDS011;33558;50.922;14.068;2023-02-15T11:24:34;19.07;;;10.63;;
47796;SDS011;33558;50.922;14.068;2023-02-15T11:27:04;20.37;;;10.37;;
47796;SDS011;33558;50.922;14.068;2023-02-15T11:29:37;20.63;;;10.83;;
47796;SDS011;33558;50.922;14.068;2023-02-15T11:32:11;24.10;;;12.37;;
47796;SDS011;33558;50.922;14.068;2023-02-15T11:34:44;20.90;;;11.00;;
47796;SDS011;33558;50.922;14.068;2023-02-15T11:37:16;23.07;;;12.13;;
47796;SDS011;33558;50.922;14.068;2023-02-15T11:39:44;22.53;;;11.47;;
47796;SDS011;33558;50.922;14.068;2023-02-15T11:42:17;26.73;;;12.83;;
47796;SDS011;33558;50.922;14.068;2023-02-15T11:44:48;21.17;;;11.40;;
47796;SDS011;33558;50.922;14.068;2023-02-15T11:47:20;20.10;;;10.90;;
47796;SDS011;33558;50.922;14.068;2023-02-15T11:49:48;19.53;;;12.07;;
47796;SDS011;33558;50.922;14.068;2023-02-15T11:52:15;25.33;;;13.23;;
47796;SDS011;33558;50.922;14.068;2023-02-15T11:54:43;22.83;;;11.97;;
47796;SDS011;33558;50.922;14.068;2023-02-15T11:57:12;27.07;;;12.63;;
47796;SDS011;33558;50.922;14.068;2023-02-15T11:59:44;23.03;;;12.80;;
47796;SDS011;33558;50.922;14.068;2023-02-15T12:02:15;21.67;;;12.47;;
47796;SDS011;33558;50.922;14.068;2023-02-15T12:04:45;20.67;;;12.20;;
47796;SDS011;33558;50.922;14.068;2023-02-15T12:07:17;23.90;;;11.27;;
47796;SDS011;33558;50.922;14.068;2023-02-15T12:09:48;20.47;;;12.00;;
47796;SDS011;33558;50.922;14.068;2023-02-15T12:12:20;20.60;;;12.07;;
47796;SDS011;33558;50.922;14.068;2023-02-15T12:14:50;21.70;;;11.90;;
47796;SDS011;33558;50.922;14.068;2023-02-15T12:17:20;23.90;;;11.73;;
47796;SDS011;33558;50.922;14.068;2023-02-15T12:19:49;20.30;;;12.07;;
47796;SDS011;33558;50.922;14.068;2023-02-15T12:22:19;21.50;;;12.03;;
47796;SDS011;33558;50.922;14.068;2023-02-15T12:24:49;21.23;;;11.37;;
47796;SDS011;33558;50.922;14.068;2023-02-15T12:27:18;19.77;;;11.50;;
47796;SDS011;33558;50.922;14.068;2023-02-15T12:29:47;22.43;;;12.47;;
47796;SDS011;33558;50.922;14.068;2023-02-15T12:32:18;21.27;;;12.00;;
47796;SDS011;33558;50.922;14.068;2023-02-15T12:34:49;21.03;;;11.90;;
47796;SDS011;33558;50.922;14.068;2023-02-15T12:37:17;22.30;;;12.10;;
47796;SDS011;33558;50.922;14.068;2023-02-15T12:39:51;22.60;;;12.57;;
47796;SDS011;33558;50.922;14.068;2023-02-15T12:42:19;19.57;;;12.10;;
47796;SDS011;33558;50.922;14.068;2023-02-15T12:44:52;22.67;;;12.93;;
47796;SDS011;33558;50.922;14.068;2023-02-15T12:47:21;19.07;;;11.00;;
47796;SDS011;33558;50.922;14.068;2023-02-15T12:52:42;20.60;;;13.00;;
47796;SDS011;33558;50.922;14.068;2023-02-15T12:55:10;23.57;;;12.83;;
47796;SDS011;33558;50.922;14.068;2023-02-15T12:57:38;20.33;;;12.40;;
47796;SDS011;33558;50.922;14.068;2023-02-15T13:00:05;24.03;;;13.60;;
47796;SDS011;33558;50.922;14.068;2023-02-15T13:02:35;21.80;;;13.60;;
47796;SDS011;33558;50.922;14.068;2023-02-15T13:05:14;20.87;;;12.80;;
47796;SDS011;33558;50.922;14.068;2023-02-15T13:07:47;19.90;;;12.97;;
47796;SDS011;33558;50.922;14.068;2023-02-15T13:10:21;21.77;;;12.37;;
47796;SDS011;33558;50.922;14.068;2023-02-15T19:15:14;49.07;;;22.07;;
47796;SDS011;33558;50.922;14.068;2023-02-15T19:17:41;50.67;;;21.67;;
47796;SDS011;33558;50.922;14.068;2023-02-15T19:20:13;50.63;;;21.77;;
47796;SDS011;33558;50.922;14.068;2023-02-15T19:22:41;50.37;;;21.90;;
47796;SDS011;33558;50.922;14.068;2023-02-15T19:25:12;57.53;;;22.77;;
47796;SDS011;33558;50.922;14.068;2023-02-15T19:27:41;59.77;;;23.63;;
47796;SDS011;33558;50.922;14.068;2023-02-15T19:30:11;51.37;;;21.13;;
47796;SDS011;33558;50.922;14.068;2023-02-15T19:32:42;54.47;;;22.30;;
47796;SDS011;33558;50.922;14.068;2023-02-15T19:35:12;52.80;;;21.43;;
47796;SDS011;33558;50.922;14.068;2023-02-15T19:37:39;51.43;;;21.67;;
47796;SDS011;33558;50.922;14.068;2023-02-15T19:40:10;49.10;;;21.07;;
47796;SDS011;33558;50.922;14.068;2023-02-15T19:42:43;50.70;;;21.93;;
47796;SDS011;33558;50.922;14.068;2023-02-15T19:45:12;68.00;;;29.20;;
47796;SDS011;33558;50.922;14.068;2023-02-15T19:47:41;70.80;;;29.27;;
47796;SDS011;33558;50.922;14.068;2023-02-15T19:50:12;43.97;;;20.40;;
47796;SDS011;33558;50.922;14.068;2023-02-15T19:52:42;48.80;;;21.30;;
47796;SDS011;33558;50.922;14.068;2023-02-15T19:55:14;50.67;;;23.73;;
47796;SDS011;33558;50.922;14.068;2023-02-15T19:57:46;48.57;;;21.83;;
47796;SDS011;33558;50.922;14.068;2023-02-15T20:00:16;55.43;;;22.40;;
47796;SDS011;33558;50.922;14.068;2023-02-15T20:02:45;47.47;;;20.80;;
47796;SDS011;33558;50.922;14.068;2023-02-15T20:05:12;50.77;;;21.30;;
47796;SDS011;33558;50.922;14.068;2023-02-15T20:07:39;50.70;;;20.27;;
47796;SDS011;33558;50.922;14.068;2023-02-15T20:10:12;56.03;;;23.33;;
47796;SDS011;33558;50.922;14.068;2023-02-15T20:12:39;53.10;;;22.27;;
47796;SDS011;33558;50.922;14.068;2023-02-15T20:15:14;53.83;;;21.77;;
47796;SDS011;33558;50.922;14.068;2023-02-15T20:17:44;54.63;;;22.63;;
47796;SDS011;33558;50.922;14.068;2023-02-15T20:20:11;55.57;;;22.93;;
47796;SDS011;33558;50.922;14.068;2023-02-15T20:22:39;51.10;;;21.77;;
47796;SDS011;33558;50.922;14.068;2023-02-15T20:25:08;48.57;;;21.43;;
47796;SDS011;33558;50.922;14.068;2023-02-15T20:27:36;49.27;;;22.20;;
47796;SDS011;33558;50.922;14.068;2023-02-15T20:30:09;50.37;;;21.17;;
47796;SDS011;33558;50.922;14.068;2023-02-15T20:32:40;46.10;;;20.60;;
47796;SDS011;33558;50.922;14.068;2023-02-15T20:35:11;49.03;;;21.07;;
47796;SDS011;33558;50.922;14.068;2023-02-15T20:37:38;48.23;;;20.30;;
47796;SDS011;33558;50.922;14.068;2023-02-15T20:40:11;49.60;;;21.03;;
47796;SDS011;33558;50.922;14.068;2023-02-15T20:42:39;43.37;;;20.10;;
47796;SDS011;33558;50.922;14.068;2023-02-15T20:45:13;50.73;;;21.40;;
47796;SDS011;33558;50.922;14.068;2023-02-15T20:47:41;55.22;;;21.92;;
47796;SDS011;33558;50.922;14.068;2023-02-15T20:50:13;46.77;;;18.90;;
47796;SDS011;33558;50.922;14.068;2023-02-15T20:52:41;49.30;;;20.07;;
47796;SDS011;33558;50.922;14.068;2023-02-15T20:55:15;42.60;;;19.03;;
47796;SDS011;33558;50.922;14.068;2023-02-15T20:57:42;43.53;;;18.47;;
47796;SDS011;33558;50.922;14.068;2023-02-15T21:00:12;41.83;;;19.53;;
47796;SDS011;33558;50.922;14.068;2023-02-15T21:02:40;50.03;;;20.97;;
47796;SDS011;33558;50.922;14.068;2023-02-15T21:05:15;47.07;;;20.13;;
47796;SDS011;33558;50.922;14.068;2023-02-15T21:07:43;44.90;;;19.37;;
47796;SDS011;33558;50.922;14.068;2023-02-15T21:10:13;45.83;;;20.27;;
47796;SDS011;33558;50.922;14.068;2023-02-15T21:12:41;48.57;;;19.97;;
47796;SDS011;33558;50.922;14.068;2023-02-15T21:15:15;51.27;;;21.53;;
47796;SDS011;33558;50.922;14.068;2023-02-15T21:17:50;43.50;;;19.33;;
47796;SDS011;33558;50.922;14.068;2023-02-15T21:20:18;45.13;;;19.77;;
47796;SDS011;33558;50.922;14.068;2023-02-15T21:22:46;42.50;;;17.90;;
47796;SDS011;33558;50.922;14.068;2023-02-15T21:25:13;37.53;;;17.27;;
47796;SDS011;33558;50.922;14.068;2023-02-15T21:27:40;38.73;;;16.87;;
47796;SDS011;33558;50.922;14.068;2023-02-15T21:30:12;36.43;;;17.07;;
47796;SDS011;33558;50.922;14.068;2023-02-15T21:32:40;41.27;;;16.20;;
47796;SDS011;33558;50.922;14.068;2023-02-15T21:35:08;41.63;;;18.83;;
47796;SDS011;33558;50.922;14.068;2023-02-15T21:37:38;40.13;;;18.70;;
47796;SDS011;33558;50.922;14.068;2023-02-15T21:40:09;35.50;;;16.30;;
47796;SDS011;33558;50.922;14.068;2023-02-15T21:42:41;37.70;;;16.25;;
47796;SDS011;33558;50.922;14.068;2023-02-15T21:45:25;37.20;;;16.93;;
47796;SDS011;33558;50.922;14.068;2023-02-15T21:48:09;38.40;;;18.23;;
47796;SDS011;33558;50.922;14.068;2023-02-15T21:50:36;36.80;;;15.43;;
47796;SDS011;33558;50.922;14.068;2023-02-15T21:53:22;39.97;;;17.73;;
47796;SDS011;33558;50.922;14.068;2023-02-15T21:55:51;38.63;;;17.40;;
47796;SDS011;33558;50.922;14.068;2023-02-15T21:58:21;40.00;;;16.20;;
47796;SDS011;33558;50.922;14.068;2023-02-15T22:00:50;38.73;;;16.57;;
47796;SDS011;33558;50.922;14.068;2023-02-15T22:03:20;40.00;;;17.97;;
47796;SDS011;33558;50.922;14.068;2023-02-15T22:05:47;43.93;;;19.13;;
47796;SDS011;33558;50.922;14.068;2023-02-15T22:08:13;41.13;;;17.80;;
47796;SDS011;33558;50.922;14.068;2023-02-15T22:10:42;41.43;;;19.17;;
47796;SDS011;33558;50.922;14.068;2023-02-15T22:13:11;38.10;;;17.43;;
47796;SDS011;33558;50.922;14.068;2023-02-15T22:15:39;38.93;;;16.70;;
47796;SDS011;33558;50.922;14.068;2023-02-15T22:18:08;37.43;;;16.40;;
47796;SDS011;33558;50.922;14.068;2023-02-15T22:20:43;34.17;;;15.07;;
47796;SDS011;33558;50.922;14.068;2023-02-15T22:23:10;37.37;;;16.97;;
47796;SDS011;33558;50.922;14.068;2023-02-15T22:25:37;33.03;;;15.90;;
47796;SDS011;33558;50.922;14.068;2023-02-15T22:28:05;36.37;;;17.10;;
47796;SDS011;33558;50.922;14.068;2023-02-15T22:30:33;35.77;;;15.87;;
47796;SDS011;33558;50.922;14.068;2023-02-15T22:33:02;31.47;;;14.93;;
47796;SDS011;33558;50.922;14.068;2023-02-15T22:35:29;39.23;;;16.90;;
47796;SDS011;33558;50.922;14.068;2023-02-15T22:37:57;34.60;;;15.67;;
47796;SDS011;33558;50.922;14.068;2023-02-15T22:40:25;39.33;;;16.37;;
47796;SDS011;33558;50.922;14.068;2023-02-15T22:42:53;33.47;;;16.10;;
47796;SDS011;33558;50.922;14.068;2023-02-15T22:45:22;35.17;;;17.50;;
47796;SDS011;33558;50.922;14.068;2023-02-15T22:47:52;35.93;;;15.87;;
47796;SDS011;33558;50.922;14.068;2023-02-15T22:50:20;33.00;;;14.93;;
47796;SDS011;33558;50.922;14.068;2023-02-15T22:52:48;42.93;;;19.27;;
47796;SDS011;33558;50.922;14.068;2023-02-15T22:55:16;38.83;;;17.03;;
47796;SDS011;33558;50.922;14.068;2023-02-15T22:57:43;35.80;;;15.97;;
47796;SDS011;33558;50.922;14.068;2023-02-15T23:00:14;37.70;;;17.07;;
47796;SDS011;33558;50.922;14.068;2023-02-15T23:02:43;34.00;;;14.93;;
47796;SDS011;33558;50.922;14.068;2023-02-15T23:05:17;36.40;;;15.97;;
47796;SDS011;33558;50.922;14.068;2023-02-15T23:07:45;36.67;;;16.03;;
47796;SDS011;33558;50.922;14.068;2023-02-15T23:10:12;34.07;;;14.83;;
47796;SDS011;33558;50.922;14.068;2023-02-15T23:12:46;31.17;;;15.60;;
47796;SDS011;33558;50.922;14.068;2023-02-15T23:15:30;31.93;;;15.53;;
47796;SDS011;33558;50.922;14.068;2023-02-15T23:17:58;32.27;;;14.60;;
47796;SDS011;33558;50.922;14.068;2023-02-15T23:20:29;32.03;;;15.03;;
47796;SDS011;33558;50.922;14.068;2023-02-15T23:22:56;31.20;;;15.47;;
47796;SDS011;33558;50.922;14.068;2023-02-15T23:25:22;27.93;;;13.33;;
47796;SDS011;33558;50.922;14.068;2023-02-15T23:27:52;32.27;;;14.00;;
47796;SDS011;33558;50.922;14.068;2023-02-15T23:30:21;28.07;;;13.30;;
47796;SDS011;33558;50.922;14.068;2023-02-15T23:32:48;34.73;;;15.07;;
47796;SDS011;33558;50.922;14.068;2023-02-15T23:35:17;36.50;;;16.03;;
47796;SDS011;33558;50.922;14.068;2023-02-15T23:37:45;31.73;;;14.53;;
47796;SDS011;33558;50.922;14.068;2023-02-15T23:40:12;30.57;;;14.87;;
47796;SDS011;33558;50.922;14.068;2023-02-15T23:42:57;33.73;;;14.53;;
47796;SDS011;33558;50.922;14.068;2023-02-15T23:45:23;33.03;;;14.43;;
47796;SDS011;33558;50.922;14.068;2023-02-15T23:47:50;32.50;;;14.70;;
47796;SDS011;33558;50.922;14.068;2023-02-15T23:50:36;32.93;;;15.33;;
47796;SDS011;33558;50.922;14.068;2023-02-15T23:53:03;33.27;;;13.80;;
47796;SDS011;33558;50.922;14.068;2023-02-15T23:55:32;33.43;;;15.10;;
47796;SDS011;33558;50.922;14.068;2023-02-15T23:58:00;30.00;;;13.43;;
